createdAt,value
2024-02-06T00:01:11.134Z,9.60
2024-02-06T00:03:38.667Z,9.60
2024-02-06T00:06:06.107Z,9.60
2024-02-06T00:08:33.378Z,9.60
2024-02-06T00:11:00.420Z,9.60
2024-02-06T00:13:27.367Z,9.60
2024-02-06T00:15:54.536Z,9.70
2024-02-06T00:18:21.384Z,9.70
2024-02-06T00:20:48.316Z,9.70
2024-02-06T00:23:15.239Z,9.60
2024-02-06T00:25:42.208Z,9.70
2024-02-06T00:28:11.482Z,9.60
2024-02-06T00:30:39.755Z,9.70
2024-02-06T00:33:06.879Z,9.70
2024-02-06T00:35:33.807Z,9.70
2024-02-06T00:38:00.881Z,9.70
2024-02-06T00:40:27.797Z,9.60
2024-02-06T00:42:54.723Z,9.60
2024-02-06T00:45:22.087Z,9.60
2024-02-06T00:47:53.117Z,9.70
2024-02-06T00:50:20.911Z,9.70
2024-02-06T00:52:48.706Z,9.70
2024-02-06T00:55:15.652Z,9.70
2024-02-06T00:57:42.743Z,9.70
2024-02-06T01:00:10.825Z,9.70
2024-02-06T01:02:37.869Z,9.60
2024-02-06T01:05:05.645Z,9.60
2024-02-06T01:07:32.700Z,9.70
2024-02-06T01:10:00.029Z,9.70
2024-02-06T01:12:26.973Z,9.70
2024-02-06T01:14:53.996Z,9.70
2024-02-06T01:17:20.833Z,9.70
2024-02-06T01:19:47.803Z,9.80
2024-02-06T01:22:14.808Z,9.80
2024-02-06T01:24:41.653Z,9.70
2024-02-06T01:27:08.745Z,9.70
2024-02-06T01:29:35.876Z,9.70
2024-02-06T01:32:02.804Z,9.70
2024-02-06T01:34:29.751Z,9.80
2024-02-06T01:36:56.629Z,9.70
2024-02-06T01:39:23.605Z,9.80
2024-02-06T01:41:50.520Z,9.80
2024-02-06T01:44:17.425Z,9.80
2024-02-06T01:46:44.845Z,9.80
2024-02-06T01:49:12.565Z,9.90
2024-02-06T01:51:41.274Z,9.80
2024-02-06T01:54:08.282Z,9.70
2024-02-06T01:56:36.305Z,9.80
2024-02-06T01:59:03.798Z,9.90
2024-02-06T02:01:31.504Z,10.00
2024-02-06T02:03:59.357Z,9.90
2024-02-06T02:06:27.436Z,9.90
2024-02-06T02:08:54.580Z,10.00
2024-02-06T02:11:21.454Z,9.90
2024-02-06T02:13:50.097Z,9.90
2024-02-06T02:16:20.268Z,9.90
2024-02-06T02:18:47.441Z,9.80
2024-02-06T02:21:16.037Z,9.90
2024-02-06T02:23:45.425Z,9.90
2024-02-06T02:26:14.493Z,9.90
2024-02-06T02:28:43.300Z,9.80
2024-02-06T02:31:11.559Z,9.80
2024-02-06T02:33:39.267Z,9.80
2024-02-06T02:36:07.339Z,9.80
2024-02-06T02:38:35.336Z,9.90
2024-02-06T02:41:02.488Z,9.90
2024-02-06T02:43:29.554Z,9.80
2024-02-06T02:45:56.528Z,9.80
2024-02-06T02:48:23.938Z,9.80
2024-02-06T02:50:50.870Z,9.80
2024-02-06T02:53:17.897Z,9.90
2024-02-06T02:55:45.275Z,9.90
2024-02-06T02:58:12.211Z,9.90
2024-02-06T03:00:39.229Z,9.90
2024-02-06T03:03:07.519Z,9.80
2024-02-06T03:05:34.522Z,9.80
2024-02-06T03:08:02.967Z,10.00
2024-02-06T03:10:29.850Z,9.90
2024-02-06T03:12:56.872Z,10.00
2024-02-06T03:15:23.767Z,9.90
2024-02-06T03:17:53.322Z,9.90
2024-02-06T03:20:20.562Z,10.00
2024-02-06T03:22:51.663Z,9.90
2024-02-06T03:25:18.607Z,9.80
2024-02-06T03:27:46.911Z,9.80
2024-02-06T03:30:15.598Z,9.90
2024-02-06T03:32:42.504Z,9.90
2024-02-06T03:35:09.825Z,9.90
2024-02-06T03:37:37.324Z,9.90
2024-02-06T03:40:07.068Z,9.90
2024-02-06T03:42:34.010Z,9.90
2024-02-06T03:45:00.908Z,9.90
2024-02-06T03:47:27.910Z,9.90
2024-02-06T03:49:54.843Z,9.90
2024-02-06T03:52:22.018Z,10.00
2024-02-06T03:54:49.456Z,9.90
2024-02-06T03:57:19.285Z,9.90
2024-02-06T03:59:48.178Z,9.90
2024-02-06T04:02:16.964Z,9.90
2024-02-06T04:04:44.571Z,9.90
2024-02-06T04:07:11.975Z,9.90
2024-02-06T04:09:38.957Z,9.90
2024-02-06T04:12:06.358Z,9.90
2024-02-06T04:14:33.997Z,9.90
2024-02-06T04:17:00.902Z,9.90
2024-02-06T04:19:28.373Z,9.90
2024-02-06T04:21:55.423Z,10.00
2024-02-06T04:24:22.508Z,10.00
2024-02-06T04:26:49.383Z,10.00
2024-02-06T04:29:17.548Z,9.90
2024-02-06T04:31:44.426Z,10.00
2024-02-06T04:34:11.563Z,9.90
2024-02-06T04:36:39.541Z,9.90
2024-02-06T04:39:09.148Z,9.90
2024-02-06T04:41:39.589Z,9.90
2024-02-06T04:44:06.434Z,9.80
2024-02-06T04:46:33.375Z,9.80
2024-02-06T04:49:01.370Z,9.80
2024-02-06T04:51:28.419Z,9.90
2024-02-06T04:53:55.372Z,9.90
2024-02-06T04:56:23.829Z,10.00
2024-02-06T04:58:51.498Z,10.00
2024-02-06T05:01:19.216Z,9.90
2024-02-06T05:03:46.395Z,9.90
2024-02-06T05:06:13.567Z,9.90
2024-02-06T05:08:40.922Z,9.90
2024-02-06T05:11:08.686Z,9.90
2024-02-06T05:13:35.655Z,9.90
2024-02-06T05:16:02.720Z,9.90
2024-02-06T05:18:31.033Z,9.90
2024-02-06T05:21:01.439Z,9.90
2024-02-06T05:23:28.387Z,10.00
2024-02-06T05:25:55.429Z,9.90
2024-02-06T05:28:22.478Z,9.80
2024-02-06T05:30:49.433Z,9.90
2024-02-06T05:33:17.089Z,10.00
2024-02-06T05:35:44.211Z,10.00
2024-02-06T05:38:11.073Z,9.90
2024-02-06T05:40:38.012Z,10.00
2024-02-06T05:43:05.223Z,9.90
2024-02-06T05:45:32.225Z,9.90
2024-02-06T05:48:00.805Z,9.90
2024-02-06T05:50:30.049Z,10.00
2024-02-06T05:52:57.900Z,10.00
2024-02-06T05:55:26.149Z,10.00
2024-02-06T05:57:53.094Z,10.00
2024-02-06T06:00:20.533Z,9.90
2024-02-06T06:02:47.500Z,9.90
2024-02-06T06:05:14.502Z,9.90
2024-02-06T06:07:41.499Z,9.90
2024-02-06T06:10:09.038Z,9.90
2024-02-06T06:12:35.976Z,10.00
2024-02-06T06:15:03.144Z,9.90
2024-02-06T06:17:29.970Z,9.90
2024-02-06T06:19:56.967Z,9.90
2024-02-06T06:22:23.886Z,9.90
2024-02-06T06:24:50.844Z,9.90
2024-02-06T06:27:18.393Z,9.90
2024-02-06T06:29:47.207Z,10.00
2024-02-06T06:32:14.902Z,10.20
2024-02-06T06:34:43.188Z,10.10
2024-02-06T06:37:10.446Z,10.00
2024-02-06T06:39:37.573Z,10.00
2024-02-06T06:42:06.298Z,10.00
2024-02-06T06:44:33.371Z,10.00
2024-02-06T06:47:00.297Z,10.10
2024-02-06T06:49:27.339Z,10.20
2024-02-06T06:51:54.329Z,10.10
2024-02-06T06:54:21.253Z,10.20
2024-02-06T06:56:48.284Z,10.10
2024-02-06T06:59:15.477Z,10.10
2024-02-06T07:01:43.587Z,10.10
2024-02-06T07:04:11.959Z,10.20
2024-02-06T07:06:39.863Z,10.20
2024-02-06T07:09:08.075Z,10.30
2024-02-06T07:11:35.394Z,10.20
2024-02-06T07:14:02.438Z,10.20
2024-02-06T07:16:29.347Z,10.30
2024-02-06T07:18:58.986Z,10.30
2024-02-06T07:21:26.058Z,10.30
2024-02-06T07:23:53.968Z,10.30
2024-02-06T07:26:20.878Z,10.30
2024-02-06T07:28:47.858Z,10.30
2024-02-06T07:31:18.030Z,10.30
2024-02-06T07:33:45.276Z,10.30
2024-02-06T07:36:12.788Z,10.40
2024-02-06T07:38:39.651Z,10.30
2024-02-06T07:41:06.494Z,10.30
2024-02-06T07:43:33.472Z,10.30
2024-02-06T07:46:00.429Z,10.40
2024-02-06T07:48:27.439Z,10.30
2024-02-06T07:50:54.525Z,10.30
2024-02-06T07:53:21.419Z,10.20
2024-02-06T07:55:48.986Z,10.20
2024-02-06T07:58:15.984Z,10.20
2024-02-06T08:00:42.939Z,10.30
2024-02-06T08:03:12.290Z,10.30
2024-02-06T08:05:39.241Z,10.30
2024-02-06T08:08:06.373Z,10.30
2024-02-06T08:10:33.402Z,10.30
2024-02-06T08:13:00.359Z,10.30
2024-02-06T08:15:27.225Z,10.30
2024-02-06T08:17:54.381Z,10.30
2024-02-06T08:20:23.137Z,10.40
2024-02-06T08:22:51.159Z,10.30
2024-02-06T08:25:23.991Z,10.40
2024-02-06T08:27:51.363Z,10.50
2024-02-06T08:30:18.510Z,10.50
2024-02-06T08:32:46.219Z,10.50
2024-02-06T08:35:13.599Z,10.40
2024-02-06T08:37:40.825Z,10.50
2024-02-06T08:40:08.607Z,10.60
2024-02-06T08:42:37.009Z,10.50
2024-02-06T08:45:04.858Z,10.60
2024-02-06T08:47:32.088Z,10.60
2024-02-06T08:49:59.250Z,10.60
2024-02-06T08:52:26.470Z,10.50
2024-02-06T08:54:53.465Z,10.60
2024-02-06T08:57:20.355Z,10.60
2024-02-06T08:59:47.541Z,10.60
2024-02-06T09:02:15.607Z,10.60
2024-02-06T09:04:43.545Z,10.60
2024-02-06T09:07:10.560Z,10.60
2024-02-06T09:09:40.197Z,10.60
2024-02-06T09:12:08.052Z,10.60
2024-02-06T09:14:40.383Z,10.70
2024-02-06T09:17:08.584Z,10.70
2024-02-06T09:19:39.520Z,10.70
2024-02-06T09:22:08.694Z,10.70
2024-02-06T09:24:35.668Z,10.80
2024-02-06T09:27:02.950Z,10.80
2024-02-06T09:29:30.021Z,10.80
2024-02-06T09:31:57.864Z,10.70
2024-02-06T09:34:27.932Z,10.90
2024-02-06T09:36:54.814Z,10.80
2024-02-06T09:39:22.124Z,10.80
2024-02-06T09:41:50.523Z,10.80
2024-02-06T09:44:17.460Z,10.80
2024-02-06T09:46:51.129Z,10.90
2024-02-06T09:49:18.663Z,10.80
2024-02-06T09:51:46.731Z,10.70
2024-02-06T09:54:17.621Z,10.80
2024-02-06T09:56:49.731Z,10.80
2024-02-06T09:59:19.217Z,10.80
2024-02-06T10:01:46.676Z,10.80
2024-02-06T10:04:20.271Z,10.80
2024-02-06T10:06:48.860Z,10.90
2024-02-06T10:09:18.620Z,10.80
2024-02-06T10:11:45.714Z,10.90
2024-02-06T10:14:14.004Z,10.80
2024-02-06T10:16:43.277Z,10.80
2024-02-06T10:19:11.040Z,10.80
2024-02-06T10:21:38.144Z,10.70
2024-02-06T10:24:06.526Z,10.80
2024-02-06T10:26:34.674Z,10.90
2024-02-06T10:29:10.171Z,10.90
2024-02-06T10:31:39.366Z,10.90
2024-02-06T10:34:12.182Z,10.90
2024-02-06T10:36:40.034Z,10.90
2024-02-06T10:39:09.789Z,10.90
2024-02-06T10:41:57.680Z,10.90
2024-02-06T10:44:24.705Z,10.90
2024-02-06T10:47:02.447Z,10.90
2024-02-06T10:49:33.552Z,10.90
2024-02-06T10:52:08.819Z,11.10
2024-02-06T10:54:36.779Z,11.10
2024-02-06T10:57:09.510Z,11.20
2024-02-06T10:59:46.544Z,11.20
2024-02-06T11:02:34.015Z,11.10
2024-02-06T11:05:36.134Z,11.10
2024-02-06T11:08:07.207Z,11.30
2024-02-06T11:10:45.566Z,11.40
2024-02-06T11:13:25.707Z,11.50
2024-02-06T11:15:56.223Z,11.50
2024-02-06T11:18:30.089Z,11.50
2024-02-06T11:20:59.430Z,11.60
2024-02-06T11:23:27.030Z,11.60
2024-02-06T11:25:54.934Z,11.60
2024-02-06T11:28:23.525Z,11.60
2024-02-06T11:30:52.989Z,11.70
2024-02-06T11:33:34.036Z,11.80
2024-02-06T11:36:09.633Z,11.80
2024-02-06T11:38:36.664Z,11.80
2024-02-06T11:41:18.804Z,11.80
2024-02-06T11:43:49.446Z,11.80
2024-02-06T11:46:17.606Z,11.80
2024-02-06T11:48:47.023Z,11.90
2024-02-06T11:51:25.378Z,11.90
2024-02-06T11:53:52.372Z,11.90
2024-02-06T11:56:19.317Z,11.90
2024-02-06T11:58:46.367Z,11.90
2024-02-06T12:01:14.788Z,12.00
2024-02-06T12:03:41.865Z,12.00
2024-02-06T12:06:09.155Z,11.90
2024-02-06T12:08:36.528Z,11.90
2024-02-06T12:11:04.979Z,11.90
2024-02-06T12:13:34.674Z,11.90
2024-02-06T12:16:05.694Z,11.90
2024-02-06T12:18:33.403Z,11.90
2024-02-06T12:21:00.549Z,11.90
2024-02-06T12:23:27.519Z,11.90
2024-02-06T12:25:54.598Z,12.00
2024-02-06T12:28:21.990Z,11.90
2024-02-06T12:30:51.791Z,11.90
2024-02-06T12:33:19.935Z,11.90
2024-02-06T12:35:47.932Z,11.90
2024-02-06T12:38:14.938Z,11.80
2024-02-06T12:40:45.012Z,11.80
2024-02-06T12:43:13.756Z,11.80
2024-02-06T12:45:42.987Z,11.80
2024-02-06T12:48:10.454Z,11.90
2024-02-06T12:50:37.613Z,11.90
2024-02-06T12:53:06.247Z,11.90
2024-02-06T12:55:34.721Z,12.00
2024-02-06T12:58:02.756Z,11.90
2024-02-06T13:00:30.333Z,11.90
2024-02-06T13:03:08.912Z,11.90
2024-02-06T13:05:37.295Z,11.90
2024-02-06T13:08:07.043Z,12.00
2024-02-06T13:10:34.995Z,12.00
2024-02-06T13:13:05.986Z,12.00
2024-02-06T13:15:34.112Z,12.00
2024-02-06T13:18:02.514Z,12.00
2024-02-06T13:20:33.711Z,11.90
2024-02-06T13:23:12.019Z,11.90
2024-02-06T13:25:45.872Z,11.90
2024-02-06T13:28:13.805Z,11.90
2024-02-06T13:30:41.769Z,11.90
2024-02-06T13:33:12.041Z,11.90
2024-02-06T13:35:42.047Z,11.90
2024-02-06T13:38:10.107Z,11.90
2024-02-06T13:40:38.879Z,12.00
2024-02-06T13:43:05.882Z,11.90
2024-02-06T13:45:32.916Z,11.90
2024-02-06T13:48:01.145Z,11.90
2024-02-06T13:50:28.473Z,11.80
2024-02-06T13:52:58.010Z,11.80
2024-02-06T13:55:31.479Z,11.90
2024-02-06T13:58:04.151Z,11.80
2024-02-06T14:00:32.051Z,11.80
2024-02-06T14:03:02.455Z,11.70
2024-02-06T14:05:29.930Z,11.90
2024-02-06T14:07:57.415Z,11.80
2024-02-06T14:10:25.772Z,11.80
2024-02-06T14:12:52.857Z,11.80
2024-02-06T14:15:19.999Z,11.90
2024-02-06T14:17:47.898Z,11.80
2024-02-06T14:20:17.285Z,11.70
2024-02-06T14:22:45.327Z,11.70
2024-02-06T14:25:12.713Z,11.70
2024-02-06T14:27:39.738Z,11.60
2024-02-06T14:30:08.186Z,11.50
2024-02-06T14:32:37.523Z,11.40
2024-02-06T14:35:05.333Z,11.40
2024-02-06T14:37:32.490Z,11.40
2024-02-06T14:40:00.176Z,11.20
2024-02-06T14:42:27.351Z,11.10
2024-02-06T14:44:54.370Z,11.10
2024-02-06T14:47:21.383Z,11.00
2024-02-06T14:49:49.780Z,11.00
2024-02-06T14:52:16.800Z,11.00
2024-02-06T14:54:43.787Z,10.90
2024-02-06T14:57:10.774Z,10.90
2024-02-06T14:59:38.023Z,10.90
2024-02-06T15:02:08.481Z,10.80
2024-02-06T15:04:37.845Z,10.80
2024-02-06T15:07:06.010Z,10.80
2024-02-06T15:09:33.512Z,10.70
2024-02-06T15:12:00.524Z,10.60
2024-02-06T15:14:30.851Z,10.50
2024-02-06T15:16:58.569Z,10.40
2024-02-06T15:19:25.750Z,10.50
2024-02-06T15:21:52.908Z,10.40
2024-02-06T15:24:21.676Z,10.40
2024-02-06T15:26:56.479Z,10.30
2024-02-06T15:29:24.514Z,10.30
2024-02-06T15:31:51.427Z,10.30
2024-02-06T15:34:18.493Z,10.30
2024-02-06T15:36:45.529Z,10.30
2024-02-06T15:39:13.444Z,10.20
2024-02-06T15:41:40.342Z,10.30
2024-02-06T15:44:07.236Z,10.30
2024-02-06T15:46:34.261Z,10.30
2024-02-06T15:49:01.235Z,10.30
2024-02-06T15:51:29.106Z,10.40
2024-02-06T15:53:56.322Z,10.40
2024-02-06T15:56:23.291Z,10.40
2024-02-06T15:58:50.320Z,10.40
2024-02-06T16:01:17.439Z,10.50
2024-02-06T16:03:45.776Z,10.50
2024-02-06T16:06:12.954Z,10.50
2024-02-06T16:08:39.873Z,10.50
2024-02-06T16:11:06.741Z,10.50
2024-02-06T16:13:33.685Z,10.50
2024-02-06T16:16:02.235Z,10.50
2024-02-06T16:18:30.296Z,10.50
2024-02-06T16:20:57.402Z,10.50
2024-02-06T16:23:24.422Z,10.50
2024-02-06T16:25:51.372Z,10.40
2024-02-06T16:28:18.392Z,10.30
2024-02-06T16:30:45.269Z,10.30
2024-02-06T16:33:12.270Z,10.30
2024-02-06T16:35:40.294Z,10.30
2024-02-06T16:38:07.610Z,10.20
2024-02-06T16:40:34.652Z,10.30
2024-02-06T16:43:01.664Z,10.30
2024-02-06T16:45:29.028Z,10.30
2024-02-06T16:47:55.898Z,10.20
2024-02-06T16:50:23.014Z,10.30
2024-02-06T16:52:55.215Z,10.30
2024-02-06T16:55:24.077Z,10.30
2024-02-06T16:57:51.524Z,10.20
2024-02-06T17:00:19.445Z,10.20
2024-02-06T17:02:46.449Z,10.10
2024-02-06T17:05:18.014Z,10.10
2024-02-06T17:07:45.843Z,10.20
2024-02-06T17:10:13.221Z,10.10
2024-02-06T17:12:40.314Z,10.10
2024-02-06T17:15:11.293Z,10.00
2024-02-06T17:17:38.225Z,10.10
2024-02-06T17:20:05.582Z,10.00
2024-02-06T17:22:33.532Z,10.10
2024-02-06T17:25:00.702Z,10.10
2024-02-06T17:27:27.814Z,10.10
2024-02-06T17:29:55.040Z,10.00
2024-02-06T17:32:22.045Z,10.00
2024-02-06T17:34:48.988Z,9.90
2024-02-06T17:37:15.954Z,10.00
2024-02-06T17:39:42.906Z,10.00
2024-02-06T17:42:11.392Z,9.90
2024-02-06T17:44:38.358Z,10.00
2024-02-06T17:47:05.627Z,9.90
2024-02-06T17:49:32.636Z,10.00
2024-02-06T17:52:01.018Z,10.00
2024-02-06T17:54:28.380Z,10.00
2024-02-06T17:56:55.282Z,10.00
2024-02-06T17:59:22.249Z,10.00
2024-02-06T18:01:49.303Z,10.00
2024-02-06T18:04:16.545Z,10.00
2024-02-06T18:06:44.166Z,10.00
2024-02-06T18:09:11.810Z,10.00
2024-02-06T18:11:40.258Z,10.10
2024-02-06T18:14:07.737Z,10.00
2024-02-06T18:16:53.479Z,10.00
2024-02-06T18:19:20.496Z,10.00
2024-02-06T18:21:47.590Z,10.00
2024-02-06T18:24:14.469Z,9.90
2024-02-06T18:26:41.388Z,9.90
2024-02-06T18:29:08.553Z,9.90
2024-02-06T18:31:36.866Z,9.90
2024-02-06T18:34:03.996Z,9.90
2024-02-06T18:36:30.924Z,9.90
2024-02-06T18:38:57.900Z,9.90
2024-02-06T18:41:27.829Z,9.90
2024-02-06T18:43:54.762Z,9.90
2024-02-06T18:46:21.832Z,10.00
2024-02-06T18:48:48.834Z,9.90
2024-02-06T18:51:20.307Z,10.00
2024-02-06T18:53:49.317Z,9.90
2024-02-06T18:56:18.119Z,10.00
2024-02-06T18:58:45.321Z,10.00
2024-02-06T19:01:13.512Z,10.00
2024-02-06T19:03:40.415Z,10.00
2024-02-06T19:06:07.468Z,10.10
2024-02-06T19:08:35.530Z,10.10
2024-02-06T19:11:02.702Z,10.00
2024-02-06T19:13:29.928Z,10.00
2024-02-06T19:15:59.865Z,10.00
2024-02-06T19:18:26.964Z,10.00
2024-02-06T19:20:53.964Z,10.10
2024-02-06T19:23:21.313Z,10.10
2024-02-06T19:25:50.642Z,10.10
2024-02-06T19:28:17.910Z,10.00
2024-02-06T19:30:45.725Z,10.00
2024-02-06T19:33:14.225Z,10.00
2024-02-06T19:35:41.188Z,10.00
2024-02-06T19:38:13.832Z,10.00
2024-02-06T19:41:12.682Z,10.10
2024-02-06T19:43:39.665Z,10.10
2024-02-06T19:46:07.122Z,10.10
2024-02-06T19:48:34.683Z,10.20
2024-02-06T19:51:02.195Z,10.20
2024-02-06T19:53:29.421Z,10.10
2024-02-06T19:55:56.294Z,10.30
2024-02-06T19:58:24.125Z,10.10
2024-02-06T20:00:51.607Z,10.20
2024-02-06T20:03:18.503Z,10.10
2024-02-06T20:05:45.478Z,10.10
2024-02-06T20:08:12.676Z,10.10
2024-02-06T20:10:40.515Z,10.10
2024-02-06T20:13:07.663Z,10.10
2024-02-06T20:15:34.506Z,10.10
2024-02-06T20:18:02.246Z,10.10
2024-02-06T20:20:29.254Z,10.10
2024-02-06T20:22:56.465Z,10.10
2024-02-06T20:25:24.506Z,10.10
2024-02-06T20:27:51.479Z,10.10
2024-02-06T20:30:19.236Z,10.10
2024-02-06T20:32:46.102Z,10.10
2024-02-06T20:35:13.090Z,9.90
2024-02-06T20:37:41.489Z,9.80
2024-02-06T20:40:10.958Z,9.70
2024-02-06T20:42:37.818Z,9.50
2024-02-06T20:45:04.893Z,9.40
2024-02-06T20:47:32.814Z,9.40
2024-02-06T20:49:59.927Z,9.30
2024-02-06T20:52:28.562Z,9.20
2024-02-06T20:54:55.556Z,9.20
2024-02-06T20:57:22.746Z,9.10
2024-02-06T20:59:49.622Z,9.10
2024-02-06T21:02:17.250Z,9.00
2024-02-06T21:04:44.462Z,8.90
2024-02-06T21:07:12.517Z,8.90
2024-02-06T21:09:39.550Z,8.80
2024-02-06T21:12:07.091Z,8.70
2024-02-06T21:14:36.949Z,8.50
2024-02-06T21:17:04.247Z,8.40
2024-02-06T21:19:31.324Z,8.30
2024-02-06T21:21:59.424Z,8.20
2024-02-06T21:24:26.538Z,8.10
2024-02-06T21:26:53.513Z,8.00
2024-02-06T21:29:21.497Z,8.00
2024-02-06T21:31:48.695Z,7.90
2024-02-06T21:34:16.022Z,7.80
2024-02-06T21:36:43.000Z,7.80
2024-02-06T21:39:18.238Z,7.60
2024-02-06T21:41:48.935Z,7.50
2024-02-06T21:44:16.829Z,7.40
2024-02-06T21:46:43.933Z,7.30
2024-02-06T21:49:10.987Z,7.20
2024-02-06T21:51:38.097Z,6.90
2024-02-06T21:54:05.222Z,6.80
2024-02-06T21:56:35.162Z,6.70
2024-02-06T21:59:02.388Z,6.60
2024-02-06T22:01:30.450Z,6.40
2024-02-06T22:03:57.463Z,6.30
2024-02-06T22:06:24.428Z,6.20
2024-02-06T22:08:51.426Z,6.20
2024-02-06T22:11:18.309Z,6.10
2024-02-06T22:13:45.301Z,6.10
2024-02-06T22:16:12.512Z,6.10
2024-02-06T22:18:40.465Z,6.10
2024-02-06T22:21:09.311Z,6.00
2024-02-06T22:23:36.161Z,6.10
2024-02-06T22:26:03.065Z,6.00
2024-02-06T22:28:31.155Z,5.90
2024-02-06T22:30:58.396Z,5.90
2024-02-06T22:33:25.335Z,5.90
2024-02-06T22:35:52.332Z,5.90
2024-02-06T22:38:19.434Z,6.00
2024-02-06T22:40:46.767Z,5.90
2024-02-06T22:43:13.803Z,5.90
2024-02-06T22:45:40.751Z,5.90
2024-02-06T22:48:08.109Z,5.80
2024-02-06T22:50:35.417Z,5.80
2024-02-06T22:53:02.334Z,5.80
2024-02-06T22:55:29.355Z,5.70
2024-02-06T22:57:56.274Z,5.70
2024-02-06T23:00:33.566Z,5.70
2024-02-06T23:03:01.600Z,5.60
2024-02-06T23:05:28.690Z,5.50
2024-02-06T23:07:59.048Z,5.50
2024-02-06T23:10:26.146Z,5.60
2024-02-06T23:12:53.205Z,5.50
2024-02-06T23:15:21.797Z,5.50
2024-02-06T23:17:49.706Z,5.50
2024-02-06T23:20:17.141Z,5.50
2024-02-06T23:22:44.454Z,5.50
2024-02-06T23:25:11.560Z,5.60
2024-02-06T23:27:38.851Z,5.50
2024-02-06T23:30:07.809Z,5.60
2024-02-06T23:32:35.212Z,5.50
2024-02-06T23:35:02.280Z,5.40
2024-02-06T23:37:29.427Z,5.50
2024-02-06T23:39:56.281Z,5.40
2024-02-06T23:42:23.220Z,5.40
2024-02-06T23:44:50.840Z,5.40
2024-02-06T23:47:17.759Z,5.50
2024-02-06T23:49:44.853Z,5.30
2024-02-06T23:52:12.172Z,5.30
2024-02-06T23:54:39.487Z,5.40
2024-02-06T23:57:06.629Z,5.40
2024-02-06T23:59:33.643Z,5.30
